TimeEDT,TemperatureF,Dew PointF,Humidity,Sea Level PressureIn,VisibilityMPH,Wind Direction,Wind SpeedMPH,Gust SpeedMPH,PrecipitationIn,Events,Conditions,WindDirDegrees,DateUTC
12:54 AM,79.0,60.1,52,29.83,10.0,WSW,10.4,-,N/A,,Clear,250,2013-05-16 04:54:00
1:54 AM,75.9,61.0,60,29.83,10.0,SW,9.2,-,N/A,,Clear,230,2013-05-16 05:54:00
2:54 AM,73.0,61.0,66,29.82,10.0,SW,8.1,-,N/A,,Clear,230,2013-05-16 06:54:00
3:54 AM,72.0,61.0,68,29.82,10.0,WSW,9.2,-,N/A,,Clear,240,2013-05-16 07:54:00
4:54 AM,72.0,60.1,66,29.83,10.0,WSW,8.1,-,N/A,,Clear,240,2013-05-16 08:54:00
5:54 AM,71.1,59.0,66,29.84,10.0,WSW,5.8,-,N/A,,Partly Cloudy,250,2013-05-16 09:54:00
6:54 AM,71.1,59.0,66,29.86,10.0,West,6.9,-,N/A,,Partly Cloudy,260,2013-05-16 10:54:00
7:54 AM,75.0,57.9,55,29.87,10.0,West,9.2,-,N/A,,Scattered Clouds,270,2013-05-16 11:54:00
8:54 AM,79.0,57.0,47,29.88,10.0,West,8.1,-,N/A,,Scattered Clouds,270,2013-05-16 12:54:00
9:54 AM,82.9,55.0,38,29.88,10.0,West,8.1,-,N/A,,Mostly Cloudy,270,2013-05-16 13:54:00
10:54 AM,84.9,53.1,33,29.88,10.0,West,12.7,-,N/A,,Scattered Clouds,270,2013-05-16 14:54:00
11:54 AM,87.1,54.0,32,29.88,10.0,WNW,9.2,-,N/A,,Mostly Cloudy,300,2013-05-16 15:54:00
12:54 PM,88.0,57.0,35,29.88,10.0,West,6.9,-,N/A,,Mostly Cloudy,270,2013-05-16 16:54:00
1:54 PM,89.1,57.9,35,29.87,10.0,WNW,5.8,-,N/A,,Overcast,300,2013-05-16 17:54:00
2:54 PM,89.1,59.0,36,29.86,10.0,West,10.4,-,N/A,,Overcast,280,2013-05-16 18:54:00
3:54 PM,86.0,57.9,38,29.85,10.0,WSW,8.1,-,N/A,,Overcast,240,2013-05-16 19:54:00
4:54 PM,87.1,59.0,39,29.86,9.0,West,17.3,21.9,N/A,,Overcast,260,2013-05-16 20:54:00
5:07 PM,78.8,57.2,47,29.90,9.0,WNW,32.2,41.4,N/A,,Overcast,300,2013-05-16 21:07:00
5:46 PM,66.2,62.6,88,29.92,6.0,NNW,8.1,25.3,0.02,Rain-Thunderstorm,Light Thunderstorms and Rain,330,2013-05-16 21:46:00
5:54 PM,66.2,62.6,88,29.92,6.0,North,3.5,-,N/A,Rain-Thunderstorm,Light Thunderstorms and Rain,360,2013-05-16 21:54:00
6:17 PM,69.8,60.8,73,29.89,9.0,ENE,3.5,-,0.00,Rain,Light Rain,60,2013-05-16 22:17:00
6:54 PM,68.0,64.0,87,29.89,10.0,Calm,Calm,-,0.00,,Mostly Cloudy,0,2013-05-16 22:54:00
7:54 PM,69.1,63.0,81,29.91,10.0,SSW,6.9,-,N/A,,Overcast,210,2013-05-16 23:54:00
8:54 PM,70.0,61.0,73,29.92,10.0,SW,8.1,-,N/A,,Overcast,230,2013-05-17 00:54:00
9:54 PM,69.1,62.1,78,29.94,10.0,North,3.5,-,N/A,,Overcast,350,2013-05-17 01:54:00
10:54 PM,69.1,63.0,81,29.96,10.0,WNW,3.5,-,N/A,,Overcast,290,2013-05-17 02:54:00
11:54 PM,68.0,63.0,84,29.95,10.0,NNW,4.6,-,N/A,,Scattered Clouds,340,2013-05-17 03:54:00